createdAt,value
2023-01-09T00:00:01.499Z,102053.72
2023-01-09T00:02:35.276Z,102041.72
2023-01-09T00:05:06.283Z,102056.47
2023-01-09T00:07:34.106Z,102052.25
2023-01-09T00:10:01.778Z,102055.75
2023-01-09T00:12:29.982Z,102048.81
2023-01-09T00:14:57.560Z,102044.56
2023-01-09T00:17:26.027Z,102049.69
2023-01-09T00:19:53.967Z,102042.22
2023-01-09T00:22:22.905Z,102040.50
2023-01-09T00:24:52.616Z,102044.81
2023-01-09T00:27:20.659Z,102044.84
2023-01-09T00:29:48.189Z,102050.25
2023-01-09T00:32:16.904Z,102045.06
2023-01-09T00:34:44.620Z,102040.78
2023-01-09T00:37:12.133Z,102052.09
2023-01-09T00:39:42.973Z,102049.63
2023-01-09T00:42:12.968Z,102059.34
2023-01-09T00:44:43.836Z,102051.41
2023-01-09T00:47:15.696Z,102042.81
2023-01-09T00:49:45.709Z,102038.56
2023-01-09T00:52:14.590Z,102035.97
2023-01-09T00:54:44.346Z,102035.00
2023-01-09T00:57:13.948Z,102037.00
2023-01-09T00:59:42.493Z,102010.03
2023-01-09T01:02:10.611Z,102031.81
2023-01-09T01:04:38.612Z,102035.22
2023-01-09T01:07:06.387Z,102021.56
2023-01-09T01:09:34.005Z,102008.63
2023-01-09T01:12:03.285Z,101998.25
2023-01-09T01:14:31.191Z,102004.41
2023-01-09T01:16:58.781Z,101994.84
2023-01-09T01:19:26.619Z,101980.28
2023-01-09T01:21:55.818Z,101983.66
2023-01-09T01:24:23.557Z,101981.03
2023-01-09T01:26:51.369Z,101975.16
2023-01-09T01:29:20.732Z,101959.59
2023-01-09T01:31:48.270Z,101956.19
2023-01-09T01:34:16.033Z,101950.19
2023-01-09T01:36:43.639Z,101944.28
2023-01-09T01:39:11.206Z,101948.59
2023-01-09T01:41:38.915Z,101938.31
2023-01-09T01:44:27.496Z,101942.66
2023-01-09T01:46:57.642Z,101946.16
2023-01-09T01:49:25.492Z,101941.91
2023-01-09T01:51:54.119Z,101942.94
2023-01-09T01:54:25.271Z,101934.22
2023-01-09T01:57:01.007Z,101944.69
2023-01-09T01:59:31.486Z,101940.41
2023-01-09T02:02:02.326Z,101933.56
2023-01-09T02:04:33.208Z,101925.81
2023-01-09T02:07:04.844Z,101926.66
2023-01-09T02:09:32.113Z,101922.28
2023-01-09T02:12:00.198Z,101915.59
2023-01-09T02:14:31.831Z,101915.69
2023-01-09T02:17:08.922Z,101915.66
2023-01-09T02:20:06.800Z,101914.91
2023-01-09T02:22:41.101Z,101907.91
2023-01-09T02:25:42.668Z,101915.06
2023-01-09T02:28:44.749Z,101903.03
2023-01-09T02:31:21.571Z,101883.13
2023-01-09T02:34:02.374Z,101901.34
2023-01-09T02:36:34.508Z,101889.22
2023-01-09T02:39:15.969Z,101884.25
2023-01-09T02:41:50.437Z,101872.16
2023-01-09T02:44:21.906Z,101884.41
2023-01-09T02:47:02.353Z,101884.41
2023-01-09T02:49:31.127Z,101883.53
2023-01-09T02:52:10.323Z,101887.84
2023-01-09T02:54:50.988Z,101880.28
2023-01-09T02:57:43.166Z,101888.06
2023-01-09T03:00:23.327Z,101885.50
2023-01-09T03:02:55.504Z,101888.88
2023-01-09T03:05:29.950Z,101885.56
2023-01-09T03:08:02.828Z,101880.38
2023-01-09T03:10:36.348Z,101885.56
2023-01-09T03:13:09.567Z,101874.44
2023-01-09T03:15:41.624Z,101873.66
2023-01-09T03:18:13.885Z,101877.97
2023-01-09T03:20:42.914Z,101871.84
2023-01-09T03:23:10.913Z,101868.34
2023-01-09T03:25:39.372Z,101875.34
2023-01-09T03:28:08.936Z,101876.25
2023-01-09T03:30:36.878Z,101872.84
2023-01-09T03:33:04.521Z,101868.50
2023-01-09T03:35:34.474Z,101869.50
2023-01-09T03:38:02.171Z,101871.22
2023-01-09T03:40:29.847Z,101871.31
2023-01-09T03:42:57.643Z,101872.09
2023-01-09T03:45:25.471Z,101863.53
2023-01-09T03:47:53.205Z,101867.00
2023-01-09T03:50:21.066Z,101874.06
2023-01-09T03:52:50.185Z,101877.53
2023-01-09T03:55:17.944Z,101869.75
2023-01-09T03:57:45.601Z,101868.91
2023-01-09T04:00:14.123Z,101881.09
2023-01-09T04:02:42.723Z,101873.25
2023-01-09T04:05:10.738Z,101882.84
2023-01-09T04:07:38.435Z,101880.31
2023-01-09T04:10:09.703Z,101874.31
2023-01-09T04:12:37.484Z,101881.28
2023-01-09T04:15:06.482Z,101885.53
2023-01-09T04:17:35.852Z,101873.59
2023-01-09T04:20:03.949Z,101877.00
2023-01-09T04:22:31.931Z,101873.63
2023-01-09T04:24:59.448Z,101870.19
2023-01-09T04:27:28.534Z,101872.81
2023-01-09T04:29:56.307Z,101866.72
2023-01-09T04:32:23.858Z,101868.44
2023-01-09T04:34:51.947Z,101866.84
2023-01-09T04:37:19.988Z,101867.81
2023-01-09T04:39:47.523Z,101866.06
2023-01-09T04:42:19.529Z,101865.22
2023-01-09T04:44:48.725Z,101844.56
2023-01-09T04:47:16.442Z,101852.34
2023-01-09T04:49:44.109Z,101839.38
2023-01-09T04:52:11.955Z,101835.91
2023-01-09T04:54:39.881Z,101838.50
2023-01-09T04:57:07.662Z,101844.69
2023-01-09T04:59:36.962Z,101833.44
2023-01-09T05:02:06.212Z,101831.75
2023-01-09T05:04:34.369Z,101834.38
2023-01-09T05:07:02.155Z,101835.28
2023-01-09T05:09:30.076Z,101846.56
2023-01-09T05:11:57.738Z,101832.81
2023-01-09T05:14:25.450Z,101841.50
2023-01-09T05:16:53.046Z,101840.72
2023-01-09T05:19:22.892Z,101842.50
2023-01-09T05:21:50.916Z,101847.81
2023-01-09T05:24:18.561Z,101842.56
2023-01-09T05:26:46.216Z,101837.38
2023-01-09T05:29:13.929Z,101845.16
2023-01-09T05:31:41.477Z,101847.03
2023-01-09T05:34:09.166Z,101843.59
2023-01-09T05:36:39.458Z,101847.91
2023-01-09T05:39:07.090Z,101851.53
2023-01-09T05:41:34.979Z,101850.66
2023-01-09T05:44:03.637Z,101845.59
2023-01-09T05:46:31.563Z,101836.09
2023-01-09T05:48:59.526Z,101848.34
2023-01-09T05:51:27.305Z,101844.91
2023-01-09T05:53:56.352Z,101844.94
2023-01-09T05:56:24.000Z,101831.97
2023-01-09T05:58:51.675Z,101846.94
2023-01-09T06:01:19.259Z,101849.59
2023-01-09T06:03:47.036Z,101852.34
2023-01-09T06:06:15.693Z,101855.00
2023-01-09T06:08:43.243Z,101860.31
2023-01-09T06:11:12.407Z,101854.38
2023-01-09T06:13:43.489Z,101861.41
2023-01-09T06:16:11.188Z,101854.56
2023-01-09T06:18:39.293Z,101865.97
2023-01-09T06:21:07.160Z,101864.28
2023-01-09T06:23:34.789Z,101873.94
2023-01-09T06:26:06.441Z,101874.97
2023-01-09T06:28:35.578Z,101870.72
2023-01-09T06:31:03.233Z,101870.06
2023-01-09T06:33:30.998Z,101866.69
2023-01-09T06:35:58.781Z,101865.09
2023-01-09T06:38:26.415Z,101865.16
2023-01-09T06:40:54.227Z,101865.22
2023-01-09T06:43:21.885Z,101875.66
2023-01-09T06:45:53.265Z,101873.06
2023-01-09T06:48:20.943Z,101863.56
2023-01-09T06:50:48.745Z,101858.41
2023-01-09T06:53:16.319Z,101863.69
2023-01-09T06:55:44.358Z,101871.47
2023-01-09T06:58:12.749Z,101870.63
2023-01-09T07:00:40.255Z,101872.38
2023-01-09T07:03:09.322Z,101876.78
2023-01-09T07:05:41.086Z,101869.91
2023-01-09T07:08:09.610Z,101870.78
2023-01-09T07:10:38.830Z,101879.47
2023-01-09T07:13:06.623Z,101873.47
2023-01-09T07:15:34.497Z,101874.34
2023-01-09T07:18:03.289Z,101880.47
2023-01-09T07:20:32.494Z,101880.50
2023-01-09T07:23:00.568Z,101877.00
2023-01-09T07:25:28.340Z,101868.38
2023-01-09T07:27:56.762Z,101871.84
2023-01-09T07:30:24.531Z,101864.84
2023-01-09T07:32:53.191Z,101870.97
2023-01-09T07:35:20.683Z,101871.88
2023-01-09T07:37:49.727Z,101869.41
2023-01-09T07:40:17.641Z,101872.84
2023-01-09T07:42:45.197Z,101879.78
2023-01-09T07:45:13.089Z,101872.00
2023-01-09T07:47:41.361Z,101879.00
2023-01-09T07:50:09.948Z,101879.84
2023-01-09T07:52:38.162Z,101879.00
2023-01-09T07:55:09.020Z,101882.47
2023-01-09T07:57:36.584Z,101876.38
2023-01-09T08:00:05.556Z,101878.16
2023-01-09T08:02:33.610Z,101880.78
2023-01-09T11:40:26.454Z,101763.84
2023-01-09T11:43:15.624Z,101763.84
2023-01-09T11:46:00.762Z,101758.63
2023-01-09T11:48:37.946Z,101766.44
2023-01-09T11:51:17.535Z,101756.88
2023-01-09T11:53:55.483Z,101753.44
2023-01-09T11:56:24.926Z,101751.69
2023-01-09T11:58:53.038Z,101752.56
2023-01-09T12:02:01.559Z,101749.97
2023-01-09T12:04:35.298Z,101743.00
2023-01-09T12:07:22.279Z,101730.78
2023-01-09T12:09:58.973Z,101742.06
2023-01-09T12:12:36.857Z,101728.13
2023-01-09T12:15:23.309Z,101733.31
2023-01-09T12:18:11.053Z,101739.34
2023-01-09T12:20:53.490Z,101728.91
2023-01-09T12:23:35.161Z,101729.75
2023-01-09T12:26:11.276Z,101728.00
2023-01-09T12:29:21.805Z,101718.44
2023-01-09T12:32:06.864Z,101719.34
2023-01-09T12:34:52.814Z,101718.53
2023-01-09T12:37:46.301Z,101711.59
2023-01-09T12:40:30.763Z,101716.84
2023-01-09T12:43:07.906Z,101702.94
2023-01-09T12:45:54.789Z,101709.88
2023-01-09T12:48:43.529Z,101708.16
2023-01-09T12:51:28.524Z,101717.72
2023-01-09T12:54:01.278Z,101707.25
2023-01-09T12:56:33.665Z,101701.19
2023-01-09T12:59:10.433Z,101713.31
2023-01-09T13:01:46.066Z,101719.41
2023-01-09T13:04:19.464Z,101712.44
2023-01-09T13:06:53.279Z,101713.31
2023-01-09T13:09:26.652Z,101718.53
2023-01-09T13:12:03.167Z,101708.13
2023-01-09T13:14:46.099Z,101722.00
2023-01-09T13:17:21.357Z,101719.41
2023-01-09T13:19:49.057Z,101734.19
2023-01-09T13:22:17.301Z,101735.94
2023-01-09T13:25:13.834Z,101733.31
2023-01-09T13:27:46.831Z,101729.00
2023-01-09T13:30:30.349Z,101720.31
2023-01-09T13:33:13.041Z,101719.44
2023-01-09T13:35:49.379Z,101716.84
2023-01-09T13:38:21.782Z,101709.03
2023-01-09T13:41:02.209Z,101701.22
2023-01-09T13:43:54.370Z,101712.50
2023-01-09T13:46:21.954Z,101707.31
2023-01-09T13:48:52.494Z,101711.63
2023-01-09T13:51:56.902Z,101709.91
2023-01-09T13:55:02.769Z,101704.69
2023-01-09T13:57:33.373Z,101713.41
2023-01-09T14:00:38.631Z,101714.25
2023-01-09T14:03:16.839Z,101695.94
2023-01-09T14:06:19.412Z,101732.47
2023-01-09T14:08:49.125Z,101711.59
2023-01-09T14:11:22.923Z,101720.25
2023-01-09T14:14:02.671Z,101705.44
2023-01-09T14:16:31.580Z,101717.69
2023-01-09T14:19:05.890Z,101716.78
2023-01-09T14:21:47.837Z,101708.13
2023-01-09T14:24:25.205Z,101722.00
2023-01-09T14:26:56.829Z,101715.94
2023-01-09T14:29:43.398Z,101702.94
2023-01-09T14:32:45.615Z,101716.78
2023-01-09T14:35:17.780Z,101713.31
2023-01-09T14:37:56.365Z,101708.97
2023-01-09T14:40:24.366Z,101708.09
2023-01-09T14:42:55.325Z,101706.31
2023-01-09T14:45:25.166Z,101711.53
2023-01-09T14:47:56.448Z,101710.69
2023-01-09T14:50:30.618Z,101708.94
2023-01-09T14:53:05.586Z,101709.81
2023-01-09T14:55:43.400Z,101706.28
2023-01-09T14:58:12.346Z,101694.06
2023-01-09T15:00:49.727Z,101694.91
2023-01-09T15:03:17.579Z,101701.78
2023-01-09T15:05:46.534Z,101702.59
2023-01-09T15:08:20.623Z,101693.00
2023-01-09T15:10:51.158Z,101681.72
2023-01-09T15:13:25.122Z,101679.94
2023-01-09T15:15:53.377Z,101678.13
2023-01-09T15:18:24.005Z,101685.06
2023-01-09T15:20:54.367Z,101684.19
2023-01-09T15:23:25.510Z,101681.56
2023-01-09T15:25:53.033Z,101683.25
2023-01-09T15:28:25.031Z,101688.47
2023-01-09T15:31:03.209Z,101676.34
2023-01-09T15:33:31.415Z,101676.31
2023-01-09T15:35:59.665Z,101657.13
2023-01-09T15:38:31.856Z,101675.47
2023-01-09T15:41:04.371Z,101658.91
2023-01-09T15:43:32.770Z,101663.28
2023-01-09T15:46:01.332Z,101658.13
2023-01-09T15:48:31.178Z,101664.25
2023-01-09T15:51:03.431Z,101642.47
2023-01-09T15:53:33.155Z,101656.41
2023-01-09T15:56:15.356Z,101654.69
2023-01-09T15:58:45.081Z,101646.88
2023-01-09T16:01:31.335Z,101646.88
2023-01-09T16:04:06.925Z,101645.16
2023-01-09T16:06:36.176Z,101632.13
2023-01-09T16:09:16.256Z,101624.28
2023-01-09T16:11:47.588Z,101625.13
2023-01-09T16:14:18.577Z,101635.56
2023-01-09T16:16:47.717Z,101617.25
2023-01-09T16:19:30.327Z,101631.22
2023-01-09T16:21:59.134Z,101617.25
2023-01-09T16:24:37.881Z,101620.75
2023-01-09T16:27:27.156Z,101610.34
2023-01-09T16:29:58.414Z,101609.44
2023-01-09T16:32:28.848Z,101603.41
2023-01-09T16:34:58.525Z,101595.53
2023-01-09T16:37:26.920Z,101604.19
2023-01-09T16:40:26.741Z,101602.47
2023-01-09T16:42:56.602Z,101607.72
2023-01-09T16:45:25.414Z,101595.59
2023-01-09T16:47:53.174Z,101587.81
2023-01-09T16:50:21.276Z,101596.56
2023-01-09T16:52:48.834Z,101581.00
2023-01-09T16:55:16.743Z,101584.47
2023-01-09T16:57:47.676Z,101587.09
2023-01-09T17:00:17.568Z,101576.69
2023-01-09T17:02:45.782Z,101569.75
2023-01-09T17:05:13.852Z,101576.72
2023-01-09T17:07:41.605Z,101572.38
2023-01-09T17:10:19.128Z,101564.56
2023-01-09T17:12:48.758Z,101554.16
2023-01-09T17:15:16.417Z,101550.69
2023-01-09T17:17:44.093Z,101553.28
2023-01-09T17:20:17.127Z,101550.69
2023-01-09T17:22:48.947Z,101555.88
2023-01-09T17:25:17.014Z,101546.31
2023-01-09T17:27:45.366Z,101550.63
2023-01-09T17:30:18.918Z,101538.44
2023-01-09T17:32:47.207Z,101548.00
2023-01-09T17:35:17.228Z,101544.50
2023-01-09T17:37:44.834Z,101534.16
2023-01-09T17:40:18.770Z,101537.59
2023-01-09T17:42:47.677Z,101534.09
2023-01-09T17:45:16.913Z,101541.06
